createdAt,value
2023-03-31T00:00:57.886Z,9.70
2023-03-31T00:02:31.258Z,9.70
2023-03-31T00:04:05.466Z,9.70
2023-03-31T00:05:38.955Z,9.70
2023-03-31T00:07:13.242Z,9.70
2023-03-31T00:08:47.180Z,9.70
2023-03-31T00:10:20.431Z,9.70
2023-03-31T00:11:53.978Z,9.70
2023-03-31T00:13:27.254Z,9.70
2023-03-31T00:15:00.610Z,9.70
2023-03-31T00:16:35.234Z,9.70
2023-03-31T00:18:07.675Z,9.70
2023-03-31T00:19:42.152Z,9.70
2023-03-31T00:21:25.085Z,9.70
2023-03-31T00:22:58.897Z,9.70
2023-03-31T00:24:33.599Z,9.70
2023-03-31T00:26:06.967Z,9.70
2023-03-31T00:27:44.045Z,9.50
2023-03-31T00:29:16.352Z,9.60
2023-03-31T00:30:49.848Z,9.60
2023-03-31T00:32:24.338Z,9.60
2023-03-31T00:33:58.948Z,9.60
2023-03-31T00:35:33.265Z,9.60
2023-03-31T00:37:06.376Z,9.50
2023-03-31T00:38:39.623Z,9.50
2023-03-31T00:40:13.177Z,9.50
2023-03-31T00:41:46.899Z,9.50
2023-03-31T00:43:30.186Z,9.50
2023-03-31T00:45:27.208Z,9.40
2023-03-31T00:47:07.878Z,9.40
2023-03-31T00:48:49.451Z,9.40
2023-03-31T00:50:28.846Z,9.50
2023-03-31T00:52:07.020Z,9.40
2023-03-31T00:53:40.926Z,9.40
2023-03-31T00:55:19.177Z,9.40
2023-03-31T00:56:58.475Z,9.40
2023-03-31T00:58:33.432Z,9.40
2023-03-31T01:00:14.429Z,9.30
2023-03-31T01:01:52.870Z,9.30
2023-03-31T01:03:27.196Z,9.30
2023-03-31T01:05:02.120Z,9.30
2023-03-31T01:06:36.231Z,9.30
2023-03-31T01:08:12.158Z,9.30
2023-03-31T01:09:50.489Z,9.30
2023-03-31T01:11:30.651Z,9.30
2023-03-31T01:13:05.771Z,9.30
2023-03-31T01:14:39.568Z,9.30
2023-03-31T01:16:13.474Z,9.30
2023-03-31T01:17:51.300Z,9.30
2023-03-31T01:19:46.245Z,9.30
2023-03-31T01:22:15.757Z,9.30
2023-03-31T01:24:35.829Z,9.40
2023-03-31T01:26:47.171Z,9.40
2023-03-31T01:28:34.562Z,9.40
2023-03-31T01:30:44.517Z,9.40
2023-03-31T01:33:03.421Z,9.40
2023-03-31T01:35:25.957Z,9.40
2023-03-31T01:37:31.724Z,9.40
2023-03-31T01:39:58.168Z,9.40
2023-03-31T01:41:49.690Z,9.40
2023-03-31T01:43:30.553Z,9.40
2023-03-31T01:45:19.898Z,9.50
2023-03-31T01:46:59.487Z,9.40
2023-03-31T01:48:48.634Z,9.50
2023-03-31T01:50:29.642Z,9.50
2023-03-31T01:52:13.864Z,9.50
2023-03-31T01:53:55.909Z,9.50
2023-03-31T01:55:38.002Z,9.50
2023-03-31T01:57:18.241Z,9.50
2023-03-31T01:58:57.092Z,9.50
2023-03-31T02:00:35.359Z,9.50
2023-03-31T02:02:16.457Z,9.50
2023-03-31T02:03:57.759Z,9.50
2023-03-31T02:05:36.723Z,9.50
2023-03-31T02:07:17.425Z,9.50
2023-03-31T02:08:58.290Z,9.50
2023-03-31T02:10:35.958Z,9.60
2023-03-31T02:12:12.429Z,9.50
2023-03-31T02:13:50.074Z,9.50
2023-03-31T02:15:29.405Z,9.50
2023-03-31T02:17:05.942Z,9.50
2023-03-31T02:18:41.971Z,9.50
2023-03-31T02:20:19.593Z,9.60
2023-03-31T02:21:54.734Z,9.60
2023-03-31T02:23:31.888Z,9.60
2023-03-31T02:25:11.554Z,9.60
2023-03-31T02:26:54.411Z,9.60
2023-03-31T02:28:28.950Z,9.60
2023-03-31T02:30:03.894Z,9.60
2023-03-31T02:31:44.890Z,9.60
2023-03-31T02:33:18.040Z,9.60
2023-03-31T02:34:51.408Z,9.60
2023-03-31T02:36:25.485Z,9.60
2023-03-31T02:37:59.470Z,9.60
2023-03-31T02:39:37.731Z,9.60
2023-03-31T02:41:11.439Z,9.60
2023-03-31T02:42:46.326Z,9.60
2023-03-31T02:44:19.394Z,9.60
2023-03-31T02:45:53.074Z,9.60
2023-03-31T02:47:26.626Z,9.60
2023-03-31T02:49:03.341Z,9.60
2023-03-31T02:50:54.957Z,9.60
2023-03-31T02:52:52.317Z,9.60
2023-03-31T02:54:46.510Z,9.60
2023-03-31T02:56:41.018Z,9.60
2023-03-31T02:58:58.923Z,9.60
2023-03-31T03:00:56.204Z,9.60
2023-03-31T03:02:46.418Z,9.70
2023-03-31T03:04:42.258Z,9.60
2023-03-31T03:06:37.501Z,9.60
2023-03-31T03:08:29.757Z,9.60
2023-03-31T03:10:10.041Z,9.60
2023-03-31T03:11:53.862Z,9.70
2023-03-31T03:13:36.558Z,9.70
2023-03-31T03:15:15.820Z,9.70
2023-03-31T03:16:57.657Z,9.70
2023-03-31T03:18:31.009Z,9.70
2023-03-31T03:20:09.140Z,9.70
2023-03-31T03:21:42.255Z,9.70
2023-03-31T03:23:15.636Z,9.70
2023-03-31T03:24:49.409Z,9.70
2023-03-31T03:26:23.780Z,9.70
2023-03-31T03:27:57.383Z,9.70
2023-03-31T03:29:31.894Z,9.70
2023-03-31T03:31:05.115Z,9.70
2023-03-31T03:32:38.563Z,9.70
2023-03-31T03:34:11.875Z,9.70
2023-03-31T03:35:45.088Z,9.70
2023-03-31T03:37:18.247Z,9.70
2023-03-31T03:38:51.277Z,9.70
2023-03-31T03:40:24.336Z,9.70
2023-03-31T03:41:57.351Z,9.70
2023-03-31T03:43:30.791Z,9.70
2023-03-31T03:45:06.436Z,9.70
2023-03-31T03:46:38.813Z,9.70
2023-03-31T03:48:12.127Z,9.70
2023-03-31T03:49:45.284Z,9.70
2023-03-31T03:51:18.431Z,9.70
2023-03-31T03:52:51.543Z,9.80
2023-03-31T03:54:23.686Z,9.70
2023-03-31T03:55:56.799Z,9.70
2023-03-31T03:57:29.949Z,9.70
2023-03-31T03:59:03.281Z,9.70
2023-03-31T04:00:37.815Z,9.70
2023-03-31T04:02:10.990Z,9.70
2023-03-31T04:03:43.152Z,9.70
2023-03-31T04:05:16.375Z,9.70
2023-03-31T04:06:49.445Z,9.70
2023-03-31T04:08:22.602Z,9.70
2023-03-31T04:09:55.717Z,9.70
2023-03-31T04:11:28.588Z,9.70
2023-03-31T04:13:01.764Z,9.70
2023-03-31T04:14:34.891Z,9.70
2023-03-31T04:16:09.842Z,9.70
2023-03-31T04:17:50.745Z,9.70
2023-03-31T04:19:26.185Z,9.70
2023-03-31T04:21:04.797Z,9.70
2023-03-31T04:22:41.441Z,9.70
2023-03-31T04:24:15.896Z,9.70
2023-03-31T04:25:50.094Z,9.70
2023-03-31T04:27:27.004Z,9.70
2023-03-31T04:29:00.932Z,9.70
2023-03-31T04:30:34.506Z,9.70
2023-03-31T04:32:09.132Z,9.70
2023-03-31T04:33:41.739Z,9.70
2023-03-31T04:35:15.265Z,9.70
2023-03-31T04:36:49.090Z,9.70
2023-03-31T04:38:24.551Z,9.70
2023-03-31T04:39:58.893Z,9.70
2023-03-31T04:41:31.887Z,9.70
2023-03-31T04:43:05.047Z,9.70
2023-03-31T04:44:38.086Z,9.70
2023-03-31T04:46:11.443Z,9.70
2023-03-31T04:47:45.852Z,9.70
2023-03-31T04:49:19.163Z,9.70
2023-03-31T04:50:52.203Z,9.70
2023-03-31T04:52:25.311Z,9.70
2023-03-31T04:53:58.339Z,9.70
2023-03-31T04:55:31.075Z,9.70
2023-03-31T04:57:04.642Z,9.70
2023-03-31T04:58:36.827Z,9.70
2023-03-31T05:00:11.404Z,9.70
2023-03-31T05:01:46.025Z,9.70
2023-03-31T05:03:21.453Z,9.70
2023-03-31T05:04:54.579Z,9.70
2023-03-31T05:06:28.746Z,9.60
2023-03-31T05:08:01.920Z,9.70
2023-03-31T05:09:35.143Z,9.60
2023-03-31T05:11:08.284Z,9.70
2023-03-31T05:12:41.455Z,9.60
2023-03-31T05:14:14.571Z,9.60
2023-03-31T05:15:50.584Z,9.70
2023-03-31T05:17:23.776Z,9.60
2023-03-31T05:18:58.183Z,9.70
2023-03-31T05:20:31.524Z,9.70
2023-03-31T05:22:04.570Z,9.70
2023-03-31T05:23:37.659Z,9.60
2023-03-31T05:25:14.394Z,9.70
2023-03-31T05:26:52.375Z,9.60
2023-03-31T05:28:25.510Z,9.70
2023-03-31T05:29:58.844Z,9.70
2023-03-31T05:31:31.899Z,9.70
2023-03-31T05:33:05.261Z,9.60
2023-03-31T05:34:40.044Z,9.60
2023-03-31T05:36:16.816Z,9.60
2023-03-31T05:37:50.287Z,9.60
2023-03-31T05:39:23.406Z,9.60
2023-03-31T05:40:56.931Z,9.60
2023-03-31T05:42:29.960Z,9.70
2023-03-31T05:44:03.229Z,9.70
2023-03-31T05:45:36.279Z,9.70
2023-03-31T05:47:09.369Z,9.60
2023-03-31T05:48:42.845Z,9.60
2023-03-31T05:50:17.365Z,9.70
2023-03-31T05:51:50.766Z,9.70
2023-03-31T05:53:24.069Z,9.70
2023-03-31T05:54:57.083Z,9.70
2023-03-31T05:56:30.120Z,9.60
2023-03-31T05:58:03.440Z,9.60
2023-03-31T05:59:36.538Z,9.60
2023-03-31T06:01:12.399Z,9.60
2023-03-31T06:02:45.712Z,9.60
2023-03-31T06:04:18.981Z,9.60
2023-03-31T06:05:53.948Z,9.60
2023-03-31T06:07:27.333Z,9.60
2023-03-31T06:09:00.677Z,9.60
2023-03-31T06:10:33.856Z,9.60
2023-03-31T06:12:08.376Z,9.60
2023-03-31T06:13:42.184Z,9.60
2023-03-31T06:15:16.254Z,9.60
2023-03-31T06:16:49.536Z,9.60
2023-03-31T06:18:22.647Z,9.60
2023-03-31T06:19:55.771Z,9.60
2023-03-31T06:21:30.160Z,9.60
2023-03-31T06:23:03.250Z,9.60
2023-03-31T06:24:36.346Z,9.60
2023-03-31T06:26:09.828Z,9.60
2023-03-31T06:27:43.494Z,9.60
2023-03-31T06:29:16.591Z,9.60
2023-03-31T06:30:49.951Z,9.60
2023-03-31T06:32:23.070Z,9.50
2023-03-31T06:33:56.420Z,9.60
2023-03-31T06:35:29.810Z,9.60
2023-03-31T06:37:04.394Z,9.60
2023-03-31T06:38:39.196Z,9.50
2023-03-31T06:40:13.283Z,9.60
2023-03-31T06:41:46.365Z,9.60
2023-03-31T06:43:27.978Z,9.60
2023-03-31T06:45:01.401Z,9.60
2023-03-31T06:46:34.810Z,9.50
2023-03-31T06:48:08.407Z,9.50
2023-03-31T06:49:41.589Z,9.50
2023-03-31T06:51:19.168Z,9.50
2023-03-31T06:52:55.062Z,9.60
2023-03-31T06:54:28.255Z,9.50
2023-03-31T06:56:02.018Z,9.50
2023-03-31T06:57:35.531Z,9.60
2023-03-31T06:59:08.684Z,9.50
2023-03-31T07:00:41.790Z,9.50
2023-03-31T07:02:16.022Z,9.50
2023-03-31T07:03:49.559Z,9.50
2023-03-31T07:05:27.232Z,9.60
2023-03-31T07:07:00.600Z,9.60
2023-03-31T07:08:36.344Z,9.60
2023-03-31T07:10:10.048Z,9.60
2023-03-31T07:11:43.255Z,9.60
2023-03-31T07:13:17.646Z,9.60
2023-03-31T07:14:51.806Z,9.60
2023-03-31T07:16:25.140Z,9.60
2023-03-31T07:18:02.275Z,9.60
2023-03-31T07:19:38.013Z,9.60
2023-03-31T07:21:11.266Z,9.60
2023-03-31T07:22:46.346Z,9.60
2023-03-31T07:24:20.942Z,9.60
2023-03-31T07:25:54.322Z,9.60
2023-03-31T07:27:27.476Z,9.60
2023-03-31T07:29:01.047Z,9.60
2023-03-31T07:30:34.738Z,9.60
2023-03-31T07:32:07.944Z,9.60
2023-03-31T07:33:41.647Z,9.60
2023-03-31T07:35:15.173Z,9.60
2023-03-31T07:36:48.370Z,9.60
2023-03-31T07:38:21.564Z,9.60
2023-03-31T07:39:56.126Z,9.60
2023-03-31T07:41:29.593Z,9.60
2023-03-31T07:43:03.218Z,9.60
2023-03-31T07:44:37.270Z,9.60
2023-03-31T07:46:17.439Z,9.60
2023-03-31T07:47:52.214Z,9.60
2023-03-31T07:49:25.729Z,9.60
2023-03-31T07:50:58.860Z,9.60
2023-03-31T07:52:38.019Z,9.60
2023-03-31T07:54:11.319Z,9.60
2023-03-31T07:55:46.604Z,9.60
2023-03-31T07:57:20.416Z,9.60
2023-03-31T07:58:56.861Z,9.60
2023-03-31T08:00:31.736Z,9.60
2023-03-31T08:02:05.121Z,9.60
2023-03-31T08:03:38.527Z,9.60
2023-03-31T08:05:13.156Z,9.60
2023-03-31T08:06:46.372Z,9.60
2023-03-31T08:08:19.869Z,9.60
2023-03-31T08:09:53.118Z,9.60
2023-03-31T08:11:27.838Z,9.60
2023-03-31T08:13:00.988Z,9.60
2023-03-31T08:14:41.194Z,9.70
2023-03-31T08:16:15.006Z,9.70
2023-03-31T08:17:48.332Z,9.70
2023-03-31T08:19:22.118Z,9.70
2023-03-31T08:20:55.259Z,9.70
2023-03-31T08:22:28.530Z,9.70
2023-03-31T08:24:01.815Z,9.70
2023-03-31T08:25:34.885Z,9.70
2023-03-31T08:27:11.849Z,9.70
2023-03-31T08:28:46.034Z,9.70
2023-03-31T08:30:21.578Z,9.70
2023-03-31T08:31:55.463Z,9.80
2023-03-31T08:33:28.998Z,9.80
2023-03-31T08:35:02.627Z,9.80
2023-03-31T08:36:36.082Z,9.80
2023-03-31T08:38:09.522Z,9.80
2023-03-31T08:39:42.968Z,9.90
2023-03-31T08:41:38.725Z,9.90
2023-03-31T08:43:23.945Z,9.90
2023-03-31T08:45:04.125Z,10.00
2023-03-31T08:46:38.567Z,10.00
2023-03-31T08:48:25.609Z,10.10
2023-03-31T08:50:06.628Z,10.10
2023-03-31T08:51:47.248Z,10.20
2023-03-31T08:53:25.868Z,10.20
2023-03-31T08:55:04.560Z,10.30
2023-03-31T08:56:43.480Z,10.40
2023-03-31T08:58:35.529Z,10.40
2023-03-31T09:00:17.464Z,10.50
2023-03-31T09:02:00.382Z,10.60
2023-03-31T09:03:45.848Z,10.60
2023-03-31T09:05:46.116Z,10.70
2023-03-31T09:07:46.433Z,10.70
2023-03-31T09:09:38.645Z,10.80
2023-03-31T09:11:20.197Z,10.90
2023-03-31T09:13:02.925Z,10.90
2023-03-31T09:14:42.241Z,10.90
2023-03-31T09:16:18.985Z,11.00
2023-03-31T09:17:55.547Z,11.00
2023-03-31T09:19:39.305Z,11.00
2023-03-31T09:21:22.018Z,11.10
2023-03-31T09:23:07.218Z,11.10
2023-03-31T09:24:53.787Z,11.10
2023-03-31T09:26:36.949Z,11.10
2023-03-31T09:28:20.461Z,11.10
2023-03-31T09:30:00.743Z,11.10
2023-03-31T09:31:35.429Z,11.10
2023-03-31T09:33:13.341Z,11.20
2023-03-31T09:34:48.722Z,11.20
2023-03-31T09:36:23.890Z,11.20
2023-03-31T09:37:57.086Z,11.20
2023-03-31T09:39:30.311Z,11.20
2023-03-31T09:41:05.331Z,11.20
2023-03-31T09:42:39.737Z,11.20
2023-03-31T09:44:25.258Z,11.20
2023-03-31T09:46:12.624Z,11.20
2023-03-31T09:47:48.466Z,11.30
2023-03-31T09:49:24.773Z,11.30
2023-03-31T09:51:03.515Z,11.40
2023-03-31T09:52:42.431Z,11.40
2023-03-31T09:54:25.304Z,11.50
2023-03-31T09:56:05.294Z,11.50
2023-03-31T09:57:41.334Z,11.60
2023-03-31T09:59:18.433Z,11.60
2023-03-31T10:01:06.303Z,11.70
2023-03-31T10:02:42.170Z,11.70
2023-03-31T10:04:24.325Z,11.80
2023-03-31T10:05:58.836Z,11.80
2023-03-31T10:07:32.514Z,11.90
2023-03-31T10:09:06.880Z,11.90
2023-03-31T10:10:45.743Z,11.90
2023-03-31T10:12:24.340Z,12.00
2023-03-31T10:14:03.896Z,12.00
2023-03-31T10:15:42.080Z,12.00
2023-03-31T10:17:20.259Z,12.00
2023-03-31T10:18:53.656Z,12.10
2023-03-31T10:20:38.028Z,12.10
2023-03-31T10:22:27.532Z,12.10
2023-03-31T10:24:02.605Z,12.10
2023-03-31T10:25:36.390Z,12.10
2023-03-31T10:27:22.974Z,12.10
2023-03-31T10:28:56.441Z,12.10
2023-03-31T10:30:38.040Z,12.20
2023-03-31T10:32:23.353Z,12.20
2023-03-31T10:33:58.390Z,12.20
2023-03-31T10:35:35.275Z,12.30
2023-03-31T10:37:14.152Z,12.30
2023-03-31T10:38:49.751Z,12.30
2023-03-31T10:40:26.401Z,12.40
2023-03-31T10:42:00.778Z,12.40
2023-03-31T10:43:41.115Z,12.50
2023-03-31T10:45:36.455Z,12.40
2023-03-31T10:47:22.825Z,12.50
2023-03-31T10:48:56.250Z,12.60
2023-03-31T10:50:32.488Z,12.60
2023-03-31T10:52:21.372Z,12.70
2023-03-31T10:54:03.251Z,12.70
2023-03-31T10:55:47.188Z,12.70
2023-03-31T10:57:33.557Z,12.70
2023-03-31T10:59:32.012Z,12.70
2023-03-31T11:01:25.129Z,12.80
2023-03-31T11:03:48.328Z,12.80
2023-03-31T11:05:32.541Z,12.90
2023-03-31T11:07:18.332Z,12.90
2023-03-31T11:09:08.763Z,12.90
2023-03-31T11:11:07.934Z,12.90
2023-03-31T11:12:52.853Z,12.90
2023-03-31T11:14:42.568Z,13.00
2023-03-31T11:16:25.774Z,13.00
2023-03-31T11:18:19.201Z,13.00
2023-03-31T11:20:11.076Z,13.00
2023-03-31T11:21:59.516Z,13.10
2023-03-31T11:23:43.327Z,13.10
2023-03-31T11:25:28.280Z,13.20
2023-03-31T11:27:25.246Z,13.30
2023-03-31T11:29:20.925Z,13.30
2023-03-31T11:31:08.369Z,13.40
2023-03-31T11:32:59.593Z,13.40
2023-03-31T11:35:18.223Z,13.50
2023-03-31T11:37:19.457Z,13.50
2023-03-31T11:39:11.800Z,13.50
2023-03-31T11:41:00.672Z,13.60
2023-03-31T11:42:49.649Z,13.60
2023-03-31T11:44:26.041Z,13.60
2023-03-31T11:46:06.404Z,13.60
2023-03-31T11:47:44.349Z,13.50
2023-03-31T11:49:23.650Z,13.50
2023-03-31T11:51:00.156Z,13.40
2023-03-31T11:52:39.866Z,13.20
2023-03-31T11:54:21.449Z,13.10
2023-03-31T11:55:58.372Z,13.20
2023-03-31T11:57:38.699Z,12.90
2023-03-31T11:59:17.097Z,12.80
2023-03-31T12:00:56.533Z,12.70
2023-03-31T12:02:45.593Z,12.50
2023-03-31T12:04:34.594Z,12.40
2023-03-31T12:06:17.553Z,12.20
2023-03-31T12:08:03.012Z,12.10
2023-03-31T12:09:49.033Z,12.00
2023-03-31T12:11:32.795Z,11.90
2023-03-31T12:13:27.142Z,11.70
2023-03-31T12:15:15.400Z,11.70
2023-03-31T12:16:52.524Z,11.50
2023-03-31T12:18:31.640Z,11.40
2023-03-31T12:20:14.204Z,11.40
2023-03-31T12:21:55.681Z,11.30
2023-03-31T12:23:34.764Z,11.20
2023-03-31T12:25:14.860Z,11.20
2023-03-31T12:27:04.442Z,11.20
2023-03-31T12:28:41.487Z,11.20
2023-03-31T12:30:21.403Z,11.20
2023-03-31T12:31:58.655Z,11.20
2023-03-31T12:33:37.061Z,11.20
2023-03-31T12:35:23.034Z,11.20
2023-03-31T12:37:22.215Z,11.20
2023-03-31T12:39:17.879Z,11.20
2023-03-31T12:41:07.570Z,11.30
2023-03-31T12:43:06.863Z,11.30
2023-03-31T12:44:57.788Z,11.30
2023-03-31T12:47:03.690Z,11.40
2023-03-31T12:49:09.748Z,11.40
2023-03-31T12:50:58.454Z,11.40
2023-03-31T12:52:51.649Z,11.50
2023-03-31T12:55:01.089Z,11.50
2023-03-31T12:57:20.370Z,11.50
2023-03-31T12:58:53.880Z,11.50
2023-03-31T13:00:30.202Z,11.60
2023-03-31T13:02:26.161Z,11.60
2023-03-31T13:04:22.294Z,11.60
2023-03-31T13:05:55.419Z,11.60
2023-03-31T13:07:42.922Z,11.60
2023-03-31T13:09:48.220Z,11.70
2023-03-31T13:11:24.290Z,11.70
2023-03-31T13:13:06.126Z,11.70
2023-03-31T13:14:42.631Z,11.80
2023-03-31T13:16:21.623Z,11.80
2023-03-31T13:18:00.433Z,11.80
2023-03-31T13:19:36.702Z,11.90
2023-03-31T13:21:12.195Z,11.90
2023-03-31T13:22:49.159Z,11.90
2023-03-31T13:24:24.619Z,11.90
2023-03-31T13:25:59.664Z,11.90
2023-03-31T13:27:35.070Z,12.00
2023-03-31T13:29:21.221Z,12.00
2023-03-31T13:31:02.027Z,12.00
2023-03-31T13:32:37.048Z,12.00
2023-03-31T13:34:10.371Z,12.00
2023-03-31T13:35:49.126Z,12.10
2023-03-31T13:37:46.361Z,12.00
2023-03-31T13:39:53.754Z,12.00
2023-03-31T13:41:46.206Z,12.10
2023-03-31T13:43:48.760Z,12.10
2023-03-31T13:45:51.992Z,12.20
2023-03-31T13:48:11.579Z,12.20
2023-03-31T13:50:37.942Z,12.20
2023-03-31T13:52:12.934Z,12.30
2023-03-31T13:54:37.828Z,12.30
2023-03-31T13:56:40.325Z,12.40
2023-03-31T13:58:34.662Z,12.40
2023-03-31T14:00:36.434Z,12.50
2023-03-31T14:02:56.028Z,12.40
2023-03-31T14:05:13.467Z,12.50
2023-03-31T14:06:53.185Z,12.50
2023-03-31T14:08:43.538Z,12.50
2023-03-31T14:10:31.302Z,12.50
2023-03-31T14:12:23.227Z,12.60
2023-03-31T14:14:06.482Z,12.60
2023-03-31T14:15:46.272Z,12.60
2023-03-31T14:17:28.101Z,12.70
2023-03-31T14:19:38.319Z,12.60
2023-03-31T14:21:25.504Z,12.70
2023-03-31T14:23:15.407Z,12.70
2023-03-31T14:25:00.184Z,12.70
2023-03-31T14:26:55.839Z,12.70
2023-03-31T14:28:54.084Z,12.70
2023-03-31T14:30:42.260Z,12.70
2023-03-31T14:32:32.841Z,12.70
2023-03-31T14:34:35.187Z,12.70
2023-03-31T14:36:19.301Z,12.70
2023-03-31T14:37:53.325Z,12.70
2023-03-31T14:39:32.167Z,12.70
2023-03-31T14:41:05.582Z,12.70
2023-03-31T14:42:41.297Z,12.70
2023-03-31T14:44:19.164Z,12.70
2023-03-31T14:46:00.286Z,12.70
2023-03-31T14:47:33.648Z,12.70
2023-03-31T14:49:21.878Z,12.70
2023-03-31T14:50:59.826Z,12.80
2023-03-31T14:52:35.595Z,12.80
2023-03-31T14:54:18.347Z,12.80
2023-03-31T14:56:01.617Z,12.80
2023-03-31T14:57:38.934Z,12.80
2023-03-31T14:59:14.034Z,12.80
2023-03-31T15:00:49.426Z,12.90
2023-03-31T15:02:33.668Z,12.90
2023-03-31T15:04:11.931Z,12.90
2023-03-31T15:05:48.846Z,12.90
2023-03-31T15:07:24.909Z,12.90
2023-03-31T15:09:02.377Z,12.90
2023-03-31T15:10:40.474Z,12.90
2023-03-31T15:12:16.561Z,12.90
2023-03-31T15:14:04.586Z,12.90
2023-03-31T15:15:38.769Z,12.90
2023-03-31T15:17:21.497Z,12.90
2023-03-31T15:18:55.566Z,12.90
2023-03-31T15:20:35.043Z,12.90
2023-03-31T15:22:16.181Z,12.90
2023-03-31T15:23:52.234Z,12.90
2023-03-31T15:25:34.275Z,12.90
2023-03-31T15:27:14.832Z,12.90
2023-03-31T15:28:55.247Z,12.90
2023-03-31T15:30:30.532Z,12.90
2023-03-31T15:32:09.245Z,12.90
2023-03-31T15:33:44.118Z,12.90
2023-03-31T15:35:23.148Z,12.90
2023-03-31T15:36:58.176Z,12.90
2023-03-31T15:38:32.746Z,12.90
2023-03-31T15:40:18.842Z,12.90
2023-03-31T15:41:52.676Z,12.90
2023-03-31T15:43:32.199Z,12.90
2023-03-31T15:45:51.152Z,12.80
2023-03-31T15:47:29.214Z,12.80
2023-03-31T15:49:03.870Z,12.80
2023-03-31T15:50:40.182Z,12.80
2023-03-31T15:52:29.272Z,12.80
2023-03-31T15:54:03.134Z,12.80
2023-03-31T15:57:19.696Z,12.80
2023-03-31T15:58:59.420Z,12.80
2023-03-31T16:00:47.269Z,12.80
2023-03-31T16:02:25.771Z,12.80
2023-03-31T16:03:59.730Z,12.70
2023-03-31T16:05:53.658Z,12.70
2023-03-31T16:07:30.664Z,12.70
2023-03-31T16:09:08.897Z,12.70
2023-03-31T16:10:42.640Z,12.60
2023-03-31T16:12:22.416Z,12.50
2023-03-31T16:14:02.036Z,12.50
2023-03-31T16:15:43.821Z,12.40
2023-03-31T16:17:26.430Z,12.40
2023-03-31T16:19:06.651Z,12.30
2023-03-31T16:20:46.787Z,12.20
2023-03-31T16:22:27.652Z,12.20
2023-03-31T16:24:01.348Z,12.20
2023-03-31T16:25:41.818Z,12.10
2023-03-31T16:27:15.717Z,12.10
2023-03-31T16:28:53.966Z,12.00
2023-03-31T16:30:37.262Z,12.00
2023-03-31T16:32:15.398Z,11.90
2023-03-31T16:33:58.817Z,11.90
2023-03-31T16:35:34.458Z,11.80
2023-03-31T16:37:11.437Z,11.80
2023-03-31T16:38:45.274Z,11.70
2023-03-31T16:40:18.469Z,11.70
2023-03-31T16:41:51.632Z,11.60
2023-03-31T16:43:27.598Z,11.60
2023-03-31T16:45:13.823Z,11.50
2023-03-31T16:46:47.976Z,11.50
2023-03-31T16:48:23.965Z,11.50
2023-03-31T16:49:57.092Z,11.50
2023-03-31T16:51:30.348Z,11.40
2023-03-31T16:53:04.992Z,11.40
2023-03-31T16:54:38.036Z,11.40
2023-03-31T16:56:12.727Z,11.40
2023-03-31T16:57:46.027Z,11.30
2023-03-31T16:59:19.394Z,11.30
2023-03-31T17:00:54.185Z,11.30
2023-03-31T17:02:27.253Z,11.30
2023-03-31T17:04:00.440Z,11.20
2023-03-31T17:05:39.383Z,11.30
2023-03-31T17:07:12.789Z,11.30
2023-03-31T17:08:47.379Z,11.20
2023-03-31T17:10:20.872Z,11.20
2023-03-31T17:11:54.156Z,11.20
2023-03-31T17:13:27.388Z,11.20
2023-03-31T17:15:00.665Z,11.20
2023-03-31T17:16:47.324Z,11.10
2023-03-31T17:18:21.673Z,11.20
2023-03-31T17:19:54.755Z,11.10
2023-03-31T17:21:29.176Z,11.10
2023-03-31T17:23:02.486Z,11.10
2023-03-31T17:24:37.278Z,11.10
2023-03-31T17:26:12.549Z,11.10
2023-03-31T17:27:46.380Z,11.10
2023-03-31T17:29:19.621Z,11.10
2023-03-31T17:30:53.477Z,11.10
2023-03-31T17:32:27.597Z,11.10
2023-03-31T17:34:01.622Z,11.10
2023-03-31T17:35:34.712Z,11.00
2023-03-31T17:37:08.279Z,11.00
2023-03-31T17:38:41.836Z,11.00
2023-03-31T17:40:16.560Z,11.00
2023-03-31T17:41:49.839Z,11.00
2023-03-31T17:43:23.193Z,11.00
2023-03-31T17:44:56.211Z,11.00
2023-03-31T17:46:29.298Z,11.00
2023-03-31T17:48:03.159Z,11.00
2023-03-31T17:49:36.268Z,11.00
2023-03-31T17:51:14.096Z,11.00
2023-03-31T17:52:47.268Z,11.00
2023-03-31T17:54:20.398Z,11.00
2023-03-31T17:55:55.577Z,11.00
2023-03-31T17:57:28.990Z,10.90
2023-03-31T17:59:02.235Z,10.90
2023-03-31T18:00:35.485Z,10.90
2023-03-31T18:02:12.115Z,10.90
2023-03-31T18:03:46.224Z,10.90
2023-03-31T18:05:20.655Z,10.90
2023-03-31T18:06:54.579Z,10.80
2023-03-31T18:08:27.890Z,10.80
2023-03-31T18:10:01.733Z,10.80
2023-03-31T18:11:37.233Z,10.80
2023-03-31T18:13:11.424Z,10.80
2023-03-31T18:14:44.511Z,10.80
2023-03-31T18:16:18.232Z,10.80
2023-03-31T18:17:51.372Z,10.80
2023-03-31T18:19:24.547Z,10.80
2023-03-31T18:20:57.766Z,10.80
2023-03-31T18:22:31.132Z,10.70
2023-03-31T18:24:04.750Z,10.70
2023-03-31T18:25:38.363Z,10.70
2023-03-31T18:27:12.904Z,10.70
2023-03-31T18:28:46.608Z,10.70
2023-03-31T18:30:20.201Z,10.70
2023-03-31T18:31:53.349Z,10.60
2023-03-31T18:33:27.133Z,10.60
2023-03-31T18:35:00.234Z,10.60
2023-03-31T18:36:34.067Z,10.60
2023-03-31T18:38:07.678Z,10.60
2023-03-31T18:39:40.789Z,10.60
2023-03-31T18:41:14.307Z,10.50
2023-03-31T18:42:48.823Z,10.50
2023-03-31T18:44:22.639Z,10.50
2023-03-31T18:45:58.534Z,10.50
2023-03-31T18:47:31.691Z,10.50
2023-03-31T18:49:05.694Z,10.50
2023-03-31T18:50:38.727Z,10.50
2023-03-31T18:52:11.843Z,10.50
2023-03-31T18:53:44.908Z,10.50
2023-03-31T18:55:18.417Z,10.50
2023-03-31T18:56:51.547Z,10.40
2023-03-31T18:58:27.841Z,10.50
2023-03-31T19:00:01.554Z,10.40
2023-03-31T19:01:37.376Z,10.40
2023-03-31T19:03:10.723Z,10.40
2023-03-31T19:04:44.136Z,10.40
2023-03-31T19:06:20.987Z,10.40
2023-03-31T19:07:54.457Z,10.40
2023-03-31T19:09:27.985Z,10.40
2023-03-31T19:11:08.068Z,10.40
2023-03-31T19:12:41.369Z,10.40
2023-03-31T19:14:17.143Z,10.40
2023-03-31T19:15:50.863Z,10.40
2023-03-31T19:17:24.213Z,10.40
2023-03-31T19:18:57.447Z,10.40
2023-03-31T19:20:30.725Z,10.40
2023-03-31T19:22:04.022Z,10.40
2023-03-31T19:23:37.274Z,10.40
2023-03-31T19:25:10.881Z,10.40
2023-03-31T19:26:44.481Z,10.40
2023-03-31T19:28:18.269Z,10.30
2023-03-31T19:29:53.773Z,10.40
2023-03-31T19:31:27.863Z,10.40
2023-03-31T19:33:01.822Z,10.30
2023-03-31T19:34:35.235Z,10.40
2023-03-31T19:36:08.759Z,10.30
2023-03-31T19:37:41.974Z,10.30
2023-03-31T19:39:15.130Z,10.30
2023-03-31T19:40:50.025Z,10.40
2023-03-31T19:42:23.287Z,10.30
2023-03-31T19:43:56.458Z,10.30
2023-03-31T19:45:31.636Z,10.30
2023-03-31T19:47:05.442Z,10.30
2023-03-31T19:48:38.610Z,10.30
2023-03-31T19:50:13.398Z,10.30
2023-03-31T19:51:46.484Z,10.30
2023-03-31T19:53:19.002Z,10.30
2023-03-31T19:54:52.133Z,10.20
2023-03-31T19:56:27.037Z,10.30
2023-03-31T19:58:00.384Z,10.20
2023-03-31T19:59:33.766Z,10.20
2023-03-31T20:01:16.205Z,10.20
2023-03-31T20:02:49.652Z,10.20
2023-03-31T20:04:23.049Z,10.10
2023-03-31T20:06:05.971Z,10.10
2023-03-31T20:07:39.179Z,10.20
2023-03-31T20:09:12.712Z,10.10
2023-03-31T20:10:45.991Z,10.10
2023-03-31T20:12:19.294Z,10.10
2023-03-31T20:13:53.170Z,10.10
2023-03-31T20:15:26.440Z,10.10
2023-03-31T20:17:03.063Z,10.10
2023-03-31T20:18:37.931Z,10.10
2023-03-31T20:20:11.971Z,10.00
2023-03-31T20:21:46.746Z,10.00
2023-03-31T20:23:19.768Z,10.00
2023-03-31T20:24:52.894Z,10.00
2023-03-31T20:26:29.669Z,10.00
2023-03-31T20:28:03.082Z,10.10
2023-03-31T20:29:36.960Z,10.00
2023-03-31T20:31:12.931Z,10.00
2023-03-31T20:32:47.622Z,10.00
2023-03-31T20:34:22.518Z,10.00
2023-03-31T20:36:03.960Z,10.00
2023-03-31T20:37:37.252Z,10.00
2023-03-31T20:39:12.555Z,10.00
2023-03-31T20:40:49.060Z,10.00
2023-03-31T20:42:22.271Z,9.90
2023-03-31T20:43:57.616Z,9.90
2023-03-31T20:45:31.375Z,9.90
2023-03-31T20:47:05.092Z,9.90
2023-03-31T20:48:42.863Z,9.90
2023-03-31T20:50:16.442Z,9.90
2023-03-31T20:51:49.927Z,9.90
2023-03-31T20:53:23.286Z,9.90
2023-03-31T20:54:56.808Z,9.80
2023-03-31T20:56:33.616Z,9.90
2023-03-31T20:58:06.809Z,9.80
2023-03-31T20:59:39.935Z,9.80
2023-03-31T21:01:14.310Z,9.80
2023-03-31T21:02:47.803Z,9.80
2023-03-31T21:04:22.383Z,9.80
2023-03-31T21:05:54.615Z,9.80
2023-03-31T21:07:27.821Z,9.70
2023-03-31T21:09:00.943Z,9.70
2023-03-31T21:10:40.232Z,9.70
2023-03-31T21:12:13.588Z,9.80
2023-03-31T21:13:48.591Z,9.70
2023-03-31T21:15:21.850Z,9.70
2023-03-31T21:16:55.173Z,9.70
2023-03-31T21:18:30.673Z,9.70
2023-03-31T21:20:06.218Z,9.70
2023-03-31T21:21:41.529Z,9.70
2023-03-31T21:23:15.451Z,9.70
2023-03-31T21:24:48.576Z,9.70
2023-03-31T21:26:22.730Z,9.70
2023-03-31T21:27:55.909Z,9.70
2023-03-31T21:29:29.327Z,9.70
2023-03-31T21:31:05.530Z,9.70
2023-03-31T21:32:38.778Z,9.70
2023-03-31T21:34:12.189Z,9.60